Time;durP1;ratioP1;P1;durP2;ratioP2;P2;SDS_P1;SDS_P2;PMS_P1;PMS_P2;Temp;Humidity;BMP_temperature;BMP_pressure;BME280_temperature;BME280_humidity;BME280_pressure;Samples;Min_cycle;Max_cycle;Signal;HPM_P1;HPM_P2
2021/08/29 00:01:04;;;;;;;9.27;6.95;;;;;;;;;;5078115;28;20110;-82
2021/08/29 00:03:30;;;;;;;10.63;6.72;;;;;;;;;;5060558;28;20119;-82
2021/08/29 00:05:56;;;;;;;8.25;6.70;;;;;;;;;;5077651;28;20021;-82
2021/08/29 00:08:22;;;;;;;9.25;6.20;;;;;;;;;;5077282;28;20027;-82
2021/08/29 00:10:48;;;;;;;11.40;6.85;;;;;;;;;;5077416;28;20428;-82
2021/08/29 00:13:14;;;;;;;9.93;6.80;;;;;;;;;;5077696;28;20037;-82
2021/08/29 00:15:40;;;;;;;11.52;6.72;;;;;;;;;;5078108;28;20024;-82
2021/08/29 00:18:06;;;;;;;9.45;6.53;;;;;;;;;;5078287;28;20039;-81
2021/08/29 00:20:32;;;;;;;10.07;7.07;;;;;;;;;;5077680;28;20036;-82
2021/08/29 00:22:58;;;;;;;9.60;7.53;;;;;;;;;;5078298;28;20050;-81
2021/08/29 00:25:24;;;;;;;8.68;6.90;;;;;;;;;;5078538;28;20032;-81
2021/08/29 00:27:50;;;;;;;9.65;7.30;;;;;;;;;;5079343;28;20510;-81
2021/08/29 00:30:16;;;;;;;12.20;7.68;;;;;;;;;;5077768;28;20033;-81
2021/08/29 00:32:42;;;;;;;11.32;7.20;;;;;;;;;;5078226;28;20050;-81
2021/08/29 00:35:08;;;;;;;15.02;7.50;;;;;;;;;;5076759;28;20099;-81
2021/08/29 00:37:34;;;;;;;10.82;7.60;;;;;;;;;;5078079;28;20070;-81
2021/08/29 00:40:00;;;;;;;11.50;7.78;;;;;;;;;;5077588;28;20045;-81
2021/08/29 00:42:26;;;;;;;9.40;7.38;;;;;;;;;;5078254;28;20435;-81
2021/08/29 00:44:52;;;;;;;12.80;8.02;;;;;;;;;;5077397;28;20037;-81
2021/08/29 00:47:18;;;;;;;11.85;7.57;;;;;;;;;;5077989;28;20025;-82
2021/08/29 00:49:44;;;;;;;13.93;8.30;;;;;;;;;;5077134;28;20025;-82
2021/08/29 00:52:11;;;;;;;10.57;7.95;;;;;;;;;;5077900;28;20048;-81
2021/08/29 00:54:40;;;;;;;12.98;7.43;;;;;;;;;;5080749;28;20047;-83
2021/08/29 00:57:07;;;;;;;11.27;7.90;;;;;;;;;;5084458;28;20036;-83
2021/08/29 00:59:33;;;;;;;10.77;7.65;;;;;;;;;;5084013;28;20028;-83
2021/08/29 01:02:11;;;;;;;10.13;7.72;;;;;;;;;;5086585;28;20032;-83
2021/08/29 01:04:56;;;;;;;16.63;8.75;;;;;;;;;;5067957;28;20047;-82
2021/08/29 01:07:23;;;;;;;11.30;8.75;;;;;;;;;;5064925;28;20029;-82
2021/08/29 01:09:54;;;;;;;10.70;8.23;;;;;;;;;;5060917;28;20110;-82
2021/08/29 01:12:23;;;;;;;11.00;8.13;;;;;;;;;;5062798;28;20048;-82
2021/08/29 01:14:50;;;;;;;12.90;8.98;;;;;;;;;;5067992;28;20035;-82
2021/08/29 01:17:17;;;;;;;12.05;8.52;;;;;;;;;;5066236;28;20401;-82
2021/08/29 01:19:49;;;;;;;15.45;8.70;;;;;;;;;;5074968;28;20027;-81
2021/08/29 01:22:15;;;;;;;12.48;8.60;;;;;;;;;;5085812;28;20602;-82
2021/08/29 01:24:42;;;;;;;12.10;8.63;;;;;;;;;;5078884;28;20021;-81
2021/08/29 01:27:13;;;;;;;12.27;8.38;;;;;;;;;;5078699;28;20076;-81
2021/08/29 01:29:40;;;;;;;11.95;8.63;;;;;;;;;;5078801;28;20020;-81
2021/08/29 01:32:07;;;;;;;12.45;8.30;;;;;;;;;;5077742;28;20029;-81
2021/08/29 01:34:33;;;;;;;11.77;8.68;;;;;;;;;;5085103;28;20054;-81
2021/08/29 01:36:59;;;;;;;11.02;8.40;;;;;;;;;;5088056;28;20025;-81
2021/08/29 01:39:25;;;;;;;12.55;9.07;;;;;;;;;;5081203;28;20033;-81
2021/08/29 01:41:52;;;;;;;12.43;8.80;;;;;;;;;;5078087;28;20479;-81
2021/08/29 01:44:19;;;;;;;13.45;9.35;;;;;;;;;;5079593;28;20028;-81
2021/08/29 01:46:45;;;;;;;12.18;9.10;;;;;;;;;;5079785;28;20377;-81
2021/08/29 01:49:12;;;;;;;16.20;8.77;;;;;;;;;;5078316;28;20036;-81
2021/08/29 01:51:39;;;;;;;13.55;9.15;;;;;;;;;;5079858;28;20554;-81
2021/08/29 01:54:05;;;;;;;13.05;9.48;;;;;;;;;;5066428;28;20029;-81
2021/08/29 01:56:31;;;;;;;15.85;9.90;;;;;;;;;;5060318;28;20025;-81
2021/08/29 01:58:57;;;;;;;14.15;9.52;;;;;;;;;;5079639;28;20095;-81
2021/08/29 02:01:23;;;;;;;15.25;9.57;;;;;;;;;;5079111;28;20036;-81
2021/08/29 02:03:50;;;;;;;12.20;8.70;;;;;;;;;;5081936;28;20107;-81
2021/08/29 02:06:31;;;;;;;12.55;8.93;;;;;;;;;;5084452;28;20070;-81
2021/08/29 02:08:59;;;;;;;20.50;10.15;;;;;;;;;;5083853;28;20057;-81
2021/08/29 02:11:26;;;;;;;16.58;9.43;;;;;;;;;;5084584;28;20043;-81
2021/08/29 02:13:54;;;;;;;13.95;9.73;;;;;;;;;;5082798;28;20589;-81
2021/08/29 02:16:21;;;;;;;14.27;9.48;;;;;;;;;;5083039;28;20086;-81
2021/08/29 02:18:51;;;;;;;14.20;9.63;;;;;;;;;;5081637;28;20486;-80
2021/08/29 02:21:17;;;;;;;16.17;10.50;;;;;;;;;;5081728;28;20032;-81
2021/08/29 02:23:45;;;;;;;14.02;9.90;;;;;;;;;;5082381;28;20025;-82
2021/08/29 02:26:11;;;;;;;17.52;9.85;;;;;;;;;;5082818;28;20389;-82
2021/08/29 02:28:37;;;;;;;21.45;11.38;;;;;;;;;;5081981;28;20059;-81
2021/08/29 02:31:04;;;;;;;15.95;11.13;;;;;;;;;;5083965;28;20044;-81
2021/08/29 02:33:30;;;;;;;14.73;10.32;;;;;;;;;;5089817;28;20040;-81
2021/08/29 02:35:59;;;;;;;17.08;10.80;;;;;;;;;;5099377;28;20032;-81
2021/08/29 02:38:25;;;;;;;15.63;11.02;;;;;;;;;;5100032;28;20009;-81
2021/08/29 02:40:53;;;;;;;20.05;13.05;;;;;;;;;;5100424;28;20088;-81
2021/08/29 02:43:20;;;;;;;17.67;11.27;;;;;;;;;;5095915;28;20060;-82
2021/08/29 02:45:46;;;;;;;16.88;11.63;;;;;;;;;;5084603;28;20032;-82
2021/08/29 02:48:12;;;;;;;21.40;11.85;;;;;;;;;;5085968;28;20025;-81
2021/08/29 02:50:38;;;;;;;17.40;12.48;;;;;;;;;;5086029;28;20104;-82
2021/08/29 02:53:04;;;;;;;20.88;13.32;;;;;;;;;;5088231;28;20044;-82
2021/08/29 02:55:31;;;;;;;19.15;11.98;;;;;;;;;;5089229;28;20027;-82
2021/08/29 02:58:01;;;;;;;18.45;11.88;;;;;;;;;;5087775;28;20100;-82
2021/08/29 03:00:27;;;;;;;18.90;11.77;;;;;;;;;;5088618;28;20013;-81
2021/08/29 03:02:53;;;;;;;18.20;12.20;;;;;;;;;;5088425;28;20454;-82
2021/08/29 03:05:19;;;;;;;19.65;11.80;;;;;;;;;;5089406;28;20021;-81
2021/08/29 03:07:45;;;;;;;21.70;12.95;;;;;;;;;;5091157;28;20028;-81
2021/08/29 03:10:12;;;;;;;18.33;11.43;;;;;;;;;;5089063;28;20025;-82
2021/08/29 03:12:38;;;;;;;15.50;10.88;;;;;;;;;;5087821;28;20040;-82
2021/08/29 03:15:06;;;;;;;18.95;11.85;;;;;;;;;;5064716;28;20124;-82
2021/08/29 03:17:32;;;;;;;18.65;11.50;;;;;;;;;;5081619;28;20033;-82
2021/08/29 03:20:00;;;;;;;13.80;10.80;;;;;;;;;;5082051;28;20035;-82
2021/08/29 03:22:26;;;;;;;17.58;11.55;;;;;;;;;;5081851;28;20032;-82
2021/08/29 03:24:52;;;;;;;21.05;11.95;;;;;;;;;;5081777;28;20050;-82
2021/08/29 03:27:18;;;;;;;18.38;11.55;;;;;;;;;;5081552;28;20021;-81
2021/08/29 03:29:44;;;;;;;17.58;12.15;;;;;;;;;;5081763;28;20028;-82
2021/08/29 03:32:10;;;;;;;21.02;11.52;;;;;;;;;;5081035;28;20401;-82
2021/08/29 03:34:36;;;;;;;19.55;11.80;;;;;;;;;;5079736;28;20028;-81
2021/08/29 03:37:03;;;;;;;17.17;11.73;;;;;;;;;;5082180;28;20613;-81
2021/08/29 03:39:29;;;;;;;18.25;11.57;;;;;;;;;;5081142;28;20028;-82
2021/08/29 03:41:57;;;;;;;20.20;11.70;;;;;;;;;;5079506;28;20638;-82
2021/08/29 03:44:23;;;;;;;22.42;12.75;;;;;;;;;;5081622;28;20045;-82
2021/08/29 03:46:49;;;;;;;19.17;11.85;;;;;;;;;;5081806;28;20020;-82
2021/08/29 03:49:15;;;;;;;17.65;10.50;;;;;;;;;;5064033;28;20029;-81
2021/08/29 03:51:42;;;;;;;15.05;9.20;;;;;;;;;;5070253;28;20027;-81
2021/08/29 03:54:08;;;;;;;16.38;10.30;;;;;;;;;;5072141;28;20039;-81
2021/08/29 03:56:34;;;;;;;13.15;8.63;;;;;;;;;;5073800;28;20054;-80
2021/08/29 03:59:01;;;;;;;12.45;8.57;;;;;;;;;;5091548;28;20020;-80
2021/08/29 04:01:27;;;;;;;13.27;8.82;;;;;;;;;;5074215;28;20031;-81
2021/08/29 04:03:53;;;;;;;17.00;9.18;;;;;;;;;;5091557;28;20093;-80
2021/08/29 04:06:19;;;;;;;11.88;7.95;;;;;;;;;;5091567;28;20032;-80
2021/08/29 04:08:46;;;;;;;11.65;7.25;;;;;;;;;;5091891;28;20028;-81
2021/08/29 04:11:13;;;;;;;11.82;8.00;;;;;;;;;;5091852;28;20061;-81
2021/08/29 04:13:39;;;;;;;10.52;6.57;;;;;;;;;;5092603;28;20046;-81
2021/08/29 04:16:06;;;;;;;9.77;6.00;;;;;;;;;;5092134;28;20024;-81
2021/08/29 04:18:37;;;;;;;9.60;7.03;;;;;;;;;;5092489;28;20029;-81
2021/08/29 04:21:03;;;;;;;11.88;7.60;;;;;;;;;;5094470;28;20055;-81
2021/08/29 04:23:29;;;;;;;9.60;6.38;;;;;;;;;;5096236;28;20028;-80
2021/08/29 04:25:55;;;;;;;10.48;7.22;;;;;;;;;;5095148;28;20019;-81
2021/08/29 04:28:21;;;;;;;12.98;7.22;;;;;;;;;;5095529;28;20016;-80
2021/08/29 04:30:48;;;;;;;10.27;7.10;;;;;;;;;;5091502;28;20065;-81
2021/08/29 04:33:14;;;;;;;9.88;6.80;;;;;;;;;;5090145;28;20029;-81
2021/08/29 04:35:40;;;;;;;10.00;6.25;;;;;;;;;;5089695;28;20103;-81
2021/08/29 04:38:06;;;;;;;8.93;6.00;;;;;;;;;;5090616;28;20024;-81
2021/08/29 04:40:33;;;;;;;9.40;6.50;;;;;;;;;;5089816;28;20111;-80
2021/08/29 04:42:59;;;;;;;8.73;5.72;;;;;;;;;;5090240;28;20080;-80
2021/08/29 04:45:25;;;;;;;9.45;6.15;;;;;;;;;;5090137;28;20039;-80
2021/08/29 04:47:51;;;;;;;8.48;6.45;;;;;;;;;;5089429;28;20041;-80
2021/08/29 04:50:17;;;;;;;6.57;5.22;;;;;;;;;;5086208;28;20016;-80
2021/08/29 04:52:43;;;;;;;7.70;5.60;;;;;;;;;;5088479;28;20450;-80
2021/08/29 04:55:09;;;;;;;7.45;5.78;;;;;;;;;;5088372;28;20028;-80
2021/08/29 04:57:35;;;;;;;7.45;5.38;;;;;;;;;;5089105;28;20052;-80
2021/08/29 05:00:01;;;;;;;7.22;5.28;;;;;;;;;;5089820;28;20028;-79
2021/08/29 05:02:27;;;;;;;7.68;5.47;;;;;;;;;;5093449;28;20035;-79
2021/08/29 05:04:53;;;;;;;8.35;5.65;;;;;;;;;;5092470;28;20032;-79
2021/08/29 05:07:19;;;;;;;8.07;5.22;;;;;;;;;;5088660;28;20024;-79
2021/08/29 05:09:45;;;;;;;6.68;4.75;;;;;;;;;;5087191;28;20088;-78
2021/08/29 05:12:11;;;;;;;8.27;5.55;;;;;;;;;;5088532;28;20032;-80
2021/08/29 05:14:37;;;;;;;8.10;5.25;;;;;;;;;;5085303;28;20036;-80
2021/08/29 05:17:03;;;;;;;8.07;4.57;;;;;;;;;;5071934;28;20089;-80
2021/08/29 05:19:29;;;;;;;7.40;5.80;;;;;;;;;;5068270;28;20029;-80
2021/08/29 05:21:55;;;;;;;8.07;5.82;;;;;;;;;;5067863;28;20119;-79
2021/08/29 05:24:21;;;;;;;6.75;5.20;;;;;;;;;;5073182;28;20033;-79
2021/08/29 05:26:47;;;;;;;9.23;5.47;;;;;;;;;;5091564;28;20097;-79
2021/08/29 05:29:13;;;;;;;9.18;5.68;;;;;;;;;;5094096;28;20091;-79
2021/08/29 05:31:39;;;;;;;7.05;5.53;;;;;;;;;;5093304;28;20091;-79
2021/08/29 05:34:05;;;;;;;8.90;5.15;;;;;;;;;;5071529;28;20033;-79
2021/08/29 05:36:31;;;;;;;7.20;4.95;;;;;;;;;;5056168;28;20037;-80
2021/08/29 05:38:57;;;;;;;7.50;5.38;;;;;;;;;;5059994;28;20046;-80
2021/08/29 05:41:23;;;;;;;7.00;5.20;;;;;;;;;;5069102;28;20041;-80
2021/08/29 05:43:49;;;;;;;6.22;4.68;;;;;;;;;;5070369;28;20032;-80
2021/08/29 05:46:15;;;;;;;7.00;4.97;;;;;;;;;;5065108;28;20040;-80
2021/08/29 05:48:41;;;;;;;6.38;4.70;;;;;;;;;;5073359;28;20033;-80
2021/08/29 05:51:07;;;;;;;6.47;4.70;;;;;;;;;;5090747;28;20028;-79
2021/08/29 05:53:33;;;;;;;10.30;5.13;;;;;;;;;;5090494;28;20037;-79
2021/08/29 05:55:59;;;;;;;8.23;4.97;;;;;;;;;;5082566;28;20626;-79
2021/08/29 05:58:25;;;;;;;7.05;5.32;;;;;;;;;;5070301;28;20091;-79
2021/08/29 06:00:53;;;;;;;6.18;4.72;;;;;;;;;;5069767;28;20167;-79
2021/08/29 06:03:19;;;;;;;6.72;4.72;;;;;;;;;;5070238;28;20024;-79
2021/08/29 06:05:45;;;;;;;6.35;4.68;;;;;;;;;;5074775;28;20035;-82
2021/08/29 06:08:11;;;;;;;7.40;4.80;;;;;;;;;;5073492;28;20107;-80
2021/08/29 06:10:37;;;;;;;7.43;4.80;;;;;;;;;;5072921;28;20517;-78
2021/08/29 06:13:03;;;;;;;6.50;4.65;;;;;;;;;;5072161;28;20032;-79
2021/08/29 06:15:29;;;;;;;6.22;4.07;;;;;;;;;;5072591;28;20099;-81
2021/08/29 06:17:55;;;;;;;6.28;4.45;;;;;;;;;;5074272;28;20594;-79
2021/08/29 06:20:21;;;;;;;4.78;3.80;;;;;;;;;;5072109;28;20025;-79
2021/08/29 06:22:47;;;;;;;6.00;3.58;;;;;;;;;;5073388;28;20036;-78
2021/08/29 06:25:13;;;;;;;5.90;3.85;;;;;;;;;;5072989;28;20604;-79
2021/08/29 06:27:39;;;;;;;4.50;3.40;;;;;;;;;;5074567;28;20040;-80
2021/08/29 06:30:06;;;;;;;4.38;3.22;;;;;;;;;;5074390;28;20028;-84
2021/08/29 06:32:32;;;;;;;6.65;3.40;;;;;;;;;;5074079;28;20111;-79
2021/08/29 06:34:58;;;;;;;5.18;3.00;;;;;;;;;;5073577;28;20027;-81
2021/08/29 06:37:24;;;;;;;6.10;3.10;;;;;;;;;;5073600;28;20025;-79
2021/08/29 06:39:50;;;;;;;3.67;3.10;;;;;;;;;;5073163;28;20428;-80
2021/08/29 06:42:16;;;;;;;5.50;3.35;;;;;;;;;;5071836;28;20064;-80
2021/08/29 06:44:41;;;;;;;3.40;2.90;;;;;;;;;;5073210;28;20404;-80
2021/08/29 06:47:07;;;;;;;4.07;2.92;;;;;;;;;;5073600;28;20039;-79
2021/08/29 06:49:34;;;;;;;3.95;3.22;;;;;;;;;;5076388;28;20025;-80
2021/08/29 06:51:59;;;;;;;5.30;3.05;;;;;;;;;;5077115;28;20032;-81
2021/08/29 06:54:25;;;;;;;4.85;2.90;;;;;;;;;;5078517;28;20450;-81
2021/08/29 06:56:52;;;;;;;3.85;3.13;;;;;;;;;;5079459;28;20033;-80
2021/08/29 06:59:17;;;;;;;6.18;3.38;;;;;;;;;;5076070;28;20128;-80
2021/08/29 07:01:43;;;;;;;5.38;2.83;;;;;;;;;;5077102;28;20113;-81
2021/08/29 07:04:09;;;;;;;5.03;3.33;;;;;;;;;;5077686;28;20027;-81
2021/08/29 07:06:37;;;;;;;3.50;2.88;;;;;;;;;;5079213;28;20032;-80
2021/08/29 07:09:03;;;;;;;4.57;2.88;;;;;;;;;;5078475;28;20091;-80
2021/08/29 07:11:29;;;;;;;4.20;3.17;;;;;;;;;;5080156;28;20039;-81
2021/08/29 07:13:55;;;;;;;3.70;2.97;;;;;;;;;;5079561;28;20024;-81
2021/08/29 07:16:21;;;;;;;3.92;2.60;;;;;;;;;;5079441;28;20035;-81
2021/08/29 07:18:47;;;;;;;6.65;2.70;;;;;;;;;;5086598;28;20037;-81
2021/08/29 07:21:13;;;;;;;3.13;2.58;;;;;;;;;;5077347;28;20400;-81
2021/08/29 07:23:39;;;;;;;5.28;2.53;;;;;;;;;;5080590;28;20033;-81
2021/08/29 07:26:05;;;;;;;5.25;2.72;;;;;;;;;;5086662;28;20078;-81
2021/08/29 07:28:31;;;;;;;5.25;2.60;;;;;;;;;;5079074;28;20028;-81
2021/08/29 07:30:57;;;;;;;4.30;2.95;;;;;;;;;;5078306;28;20504;-81
2021/08/29 07:33:23;;;;;;;4.35;2.30;;;;;;;;;;5078900;28;20028;-81
2021/08/29 07:35:49;;;;;;;3.63;2.60;;;;;;;;;;5078734;28;20040;-81
2021/08/29 07:38:15;;;;;;;4.70;2.55;;;;;;;;;;5060742;28;20025;-82
2021/08/29 07:40:41;;;;;;;3.08;2.35;;;;;;;;;;5076706;28;20028;-81
2021/08/29 07:43:07;;;;;;;3.92;2.40;;;;;;;;;;5077814;28;20516;-82
2021/08/29 07:45:33;;;;;;;4.72;3.05;;;;;;;;;;5078288;28;20040;-81
2021/08/29 07:47:59;;;;;;;3.97;2.97;;;;;;;;;;5078982;28;20032;-82
2021/08/29 07:50:25;;;;;;;5.72;3.00;;;;;;;;;;5076947;28;20029;-82
2021/08/29 07:52:51;;;;;;;3.58;2.63;;;;;;;;;;5077787;28;20521;-82
2021/08/29 07:55:19;;;;;;;6.15;2.35;;;;;;;;;;5078405;28;20025;-82
2021/08/29 07:57:45;;;;;;;4.28;2.80;;;;;;;;;;5078470;28;20013;-82
2021/08/29 08:00:11;;;;;;;6.43;2.63;;;;;;;;;;5075752;28;20031;-82
2021/08/29 08:02:37;;;;;;;7.80;3.92;;;;;;;;;;5077507;28;20024;-83
2021/08/29 08:05:03;;;;;;;3.75;2.55;;;;;;;;;;5077218;28;20096;-82
2021/08/29 08:07:29;;;;;;;4.47;3.25;;;;;;;;;;5077383;28;20033;-83
2021/08/29 08:09:55;;;;;;;3.38;2.47;;;;;;;;;;5076462;28;20066;-81
2021/08/29 08:12:21;;;;;;;3.88;2.08;;;;;;;;;;5077599;28;20469;-82
2021/08/29 08:14:47;;;;;;;3.13;2.10;;;;;;;;;;5075741;28;20135;-81
2021/08/29 08:17:13;;;;;;;5.30;2.08;;;;;;;;;;5077109;28;20044;-83
2021/08/29 08:19:39;;;;;;;5.63;2.45;;;;;;;;;;5076480;28;20059;-82
2021/08/29 08:22:05;;;;;;;4.43;2.85;;;;;;;;;;5076523;28;20031;-80
2021/08/29 08:24:31;;;;;;;3.50;1.98;;;;;;;;;;5076379;28;20470;-81
2021/08/29 08:26:57;;;;;;;2.13;1.88;;;;;;;;;;5075849;28;20025;-80
2021/08/29 08:29:23;;;;;;;2.75;2.03;;;;;;;;;;5076960;28;20039;-80
2021/08/29 08:31:49;;;;;;;6.50;2.42;;;;;;;;;;5077091;28;20024;-80
2021/08/29 08:34:15;;;;;;;4.53;2.20;;;;;;;;;;5075009;28;20024;-80
2021/08/29 08:36:41;;;;;;;2.60;1.95;;;;;;;;;;5076356;28;20092;-79
2021/08/29 08:39:07;;;;;;;4.90;2.20;;;;;;;;;;5074472;28;20059;-81
2021/08/29 08:41:33;;;;;;;2.92;2.10;;;;;;;;;;5076903;28;20032;-80
2021/08/29 08:43:59;;;;;;;2.10;1.73;;;;;;;;;;5076572;28;20474;-80
2021/08/29 08:46:25;;;;;;;2.33;1.83;;;;;;;;;;5076884;28;20029;-80
2021/08/29 08:48:52;;;;;;;2.58;1.63;;;;;;;;;;5075619;28;20034;-80
2021/08/29 08:51:22;;;;;;;3.60;1.88;;;;;;;;;;5076175;28;20082;-80
2021/08/29 08:53:50;;;;;;;2.25;1.77;;;;;;;;;;5080283;28;20036;-79
2021/08/29 08:56:17;;;;;;;4.32;2.17;;;;;;;;;;5080068;28;20028;-79
2021/08/29 08:58:44;;;;;;;2.92;1.90;;;;;;;;;;5078129;28;20067;-80
2021/08/29 09:01:10;;;;;;;4.20;2.03;;;;;;;;;;5076111;28;20484;-80
2021/08/29 09:03:37;;;;;;;2.55;1.70;;;;;;;;;;5077186;28;20545;-80
2021/08/29 09:06:05;;;;;;;10.15;3.00;;;;;;;;;;5077709;28;20063;-80
2021/08/29 09:08:31;;;;;;;7.13;1.90;;;;;;;;;;5076823;28;20033;-81
2021/08/29 09:10:57;;;;;;;3.17;2.50;;;;;;;;;;5077901;28;20035;-80
2021/08/29 09:13:23;;;;;;;2.60;1.98;;;;;;;;;;5080297;28;20028;-80
2021/08/29 09:15:49;;;;;;;2.30;1.70;;;;;;;;;;5082434;28;20044;-80
2021/08/29 09:18:15;;;;;;;2.85;1.92;;;;;;;;;;5078179;28;20071;-81
2021/08/29 09:20:41;;;;;;;1.65;1.45;;;;;;;;;;5080764;28;20040;-81
2021/08/29 09:23:13;;;;;;;6.25;1.70;;;;;;;;;;5081719;28;20021;-80
2021/08/29 09:25:41;;;;;;;2.38;1.58;;;;;;;;;;5080794;28;20083;-80
2021/08/29 09:28:14;;;;;;;3.83;2.58;;;;;;;;;;5076235;28;20024;-81
2021/08/29 09:30:45;;;;;;;3.78;1.83;;;;;;;;;;5074825;28;20036;-81
2021/08/29 09:33:11;;;;;;;2.65;1.83;;;;;;;;;;5076356;28;20094;-80
2021/08/29 09:35:37;;;;;;;2.80;1.80;;;;;;;;;;5076555;28;20024;-80
2021/08/29 09:38:05;;;;;;;2.03;1.80;;;;;;;;;;5076001;28;20032;-80
2021/08/29 09:40:35;;;;;;;2.47;2.00;;;;;;;;;;5074833;28;20025;-80
2021/08/29 09:43:04;;;;;;;3.13;2.22;;;;;;;;;;5079406;28;20068;-82
2021/08/29 09:45:32;;;;;;;3.42;2.17;;;;;;;;;;5075501;28;20028;-82
2021/08/29 09:48:02;;;;;;;4.63;2.47;;;;;;;;;;5079756;28;20025;-83
2021/08/29 09:50:29;;;;;;;4.32;2.25;;;;;;;;;;5078566;28;20032;-82
2021/08/29 09:53:01;;;;;;;2.38;1.90;;;;;;;;;;5058224;28;20033;-82
2021/08/29 09:55:32;;;;;;;2.53;2.10;;;;;;;;;;5076202;28;20033;-82
2021/08/29 09:57:58;;;;;;;4.05;2.50;;;;;;;;;;5075529;28;20043;-82
2021/08/29 10:00:24;;;;;;;2.60;2.40;;;;;;;;;;5075348;28;20029;-82
2021/08/29 10:03:03;;;;;;;3.50;2.47;;;;;;;;;;5076271;28;20428;-81
2021/08/29 10:05:30;;;;;;;3.53;2.65;;;;;;;;;;5075353;28;20486;-81
2021/08/29 10:07:57;;;;;;;3.72;2.50;;;;;;;;;;5075597;28;20035;-81
2021/08/29 10:10:24;;;;;;;3.13;2.67;;;;;;;;;;5074649;28;20469;-81
2021/08/29 10:12:50;;;;;;;2.83;2.50;;;;;;;;;;5076809;28;20553;-81
2021/08/29 10:15:20;;;;;;;4.15;3.35;;;;;;;;;;5076207;28;20028;-81
2021/08/29 10:17:46;;;;;;;4.07;3.03;;;;;;;;;;5075779;28;20027;-82
2021/08/29 10:20:16;;;;;;;8.20;3.10;;;;;;;;;;5075108;28;20078;-81
2021/08/29 10:22:43;;;;;;;4.38;3.17;;;;;;;;;;5064964;28;20078;-84
2021/08/29 10:25:09;;;;;;;4.15;3.00;;;;;;;;;;5069484;28;20028;-83
2021/08/29 10:27:38;;;;;;;3.92;3.20;;;;;;;;;;5073673;28;20032;-80
2021/08/29 10:30:07;;;;;;;3.28;2.90;;;;;;;;;;5062810;28;20036;-81
2021/08/29 10:32:40;;;;;;;5.93;3.60;;;;;;;;;;5072344;28;20033;-81
2021/08/29 10:35:10;;;;;;;6.22;3.70;;;;;;;;;;5061040;28;20712;-83
2021/08/29 10:37:37;;;;;;;5.07;3.83;;;;;;;;;;5054075;28;20497;-83
2021/08/29 10:40:04;;;;;;;5.93;4.10;;;;;;;;;;5056623;28;20040;-81
2021/08/29 10:42:30;;;;;;;5.85;4.70;;;;;;;;;;5073421;28;20033;-83
2021/08/29 10:44:56;;;;;;;4.88;4.03;;;;;;;;;;5071915;28;20033;-81
2021/08/29 10:47:23;;;;;;;4.18;3.50;;;;;;;;;;5073536;28;20626;-81
2021/08/29 10:49:50;;;;;;;5.43;3.88;;;;;;;;;;5073368;28;20029;-82
2021/08/29 10:52:16;;;;;;;6.32;4.00;;;;;;;;;;5074802;28;20059;-81
2021/08/29 10:54:55;;;;;;;5.25;3.88;;;;;;;;;;5076177;28;20033;-79
2021/08/29 10:57:28;;;;;;;5.00;3.60;;;;;;;;;;5081998;28;20033;-84
2021/08/29 11:00:04;;;;;;;5.10;3.90;;;;;;;;;;5079590;28;20033;-81
2021/08/29 11:02:38;;;;;;;7.60;4.65;;;;;;;;;;5077199;28;20021;-83
2021/08/29 11:05:04;;;;;;;5.75;4.55;;;;;;;;;;5077046;28;20437;-84
2021/08/29 11:07:49;;;;;;;5.38;4.78;;;;;;;;;;5080679;28;20034;-81
2021/08/29 11:10:35;;;;;;;6.43;5.05;;;;;;;;;;5078674;28;20027;-82
2021/08/29 11:13:21;;;;;;;7.07;5.40;;;;;;;;;;5078716;28;20021;-81
2021/08/29 11:15:47;;;;;;;7.55;5.22;;;;;;;;;;5077425;28;20477;-81
2021/08/29 11:18:12;;;;;;;7.53;5.63;;;;;;;;;;5080166;28;20120;-78
2021/08/29 11:20:56;;;;;;;6.95;5.43;;;;;;;;;;5081994;28;20061;-79
2021/08/29 11:23:48;;;;;;;6.57;5.45;;;;;;;;;;5084265;28;20017;-79
2021/08/29 11:26:33;;;;;;;9.60;5.43;;;;;;;;;;5074770;28;20045;-80
2021/08/29 11:28:59;;;;;;;7.85;5.68;;;;;;;;;;5077275;28;20082;-80
2021/08/29 11:31:44;;;;;;;6.32;4.85;;;;;;;;;;5075554;28;20038;-78
2021/08/29 11:34:10;;;;;;;6.45;4.78;;;;;;;;;;5073870;28;20029;-74
2021/08/29 11:36:36;;;;;;;5.93;5.10;;;;;;;;;;5073439;28;20450;-74
2021/08/29 11:39:03;;;;;;;8.52;5.13;;;;;;;;;;5073211;28;20028;-73
2021/08/29 11:41:29;;;;;;;7.18;4.93;;;;;;;;;;5073855;28;20432;-76
2021/08/29 11:43:55;;;;;;;19.63;13.98;;;;;;;;;;5075754;28;20021;-80
2021/08/29 11:46:30;;;;;;;6.80;5.50;;;;;;;;;;5077483;28;20017;-80
2021/08/29 11:48:57;;;;;;;9.00;7.38;;;;;;;;;;5076849;28;20050;-80
2021/08/29 11:51:44;;;;;;;8.10;7.30;;;;;;;;;;5077068;28;20075;-79
2021/08/29 11:54:13;;;;;;;10.43;9.00;;;;;;;;;;5079201;28;20481;-79
2021/08/29 11:56:39;;;;;;;9.90;8.02;;;;;;;;;;5078786;28;20441;-79
2021/08/29 11:59:08;;;;;;;8.38;6.70;;;;;;;;;;5079705;28;20040;-79
2021/08/29 12:01:34;;;;;;;7.35;6.20;;;;;;;;;;5078168;28;20030;-79
2021/08/29 12:04:01;;;;;;;6.18;5.00;;;;;;;;;;5075518;28;20029;-79
2021/08/29 12:06:30;;;;;;;7.35;6.10;;;;;;;;;;5075559;28;20059;-79
2021/08/29 12:09:02;;;;;;;12.68;8.00;;;;;;;;;;5075781;28;20056;-80
2021/08/29 12:11:28;;;;;;;5.18;4.50;;;;;;;;;;5076466;28;20028;-79
2021/08/29 12:13:56;;;;;;;7.18;5.80;;;;;;;;;;5076129;28;20032;-79
2021/08/29 12:16:23;;;;;;;8.48;5.95;;;;;;;;;;5076254;28;20043;-79
2021/08/29 12:18:49;;;;;;;7.82;4.72;;;;;;;;;;5073349;28;20045;-77
2021/08/29 12:21:15;;;;;;;8.80;6.57;;;;;;;;;;5086162;28;20039;-77
2021/08/29 12:23:42;;;;;;;10.32;7.80;;;;;;;;;;5091876;28;20020;-77
2021/08/29 12:26:09;;;;;;;9.15;4.80;;;;;;;;;;5069023;28;20040;-77
2021/08/29 12:28:35;;;;;;;8.27;5.85;;;;;;;;;;5055621;28;20099;-79
2021/08/29 12:31:02;;;;;;;6.40;5.70;;;;;;;;;;5072009;28;20033;-80
2021/08/29 12:33:28;;;;;;;8.63;6.15;;;;;;;;;;5060249;28;20032;-79
2021/08/29 12:35:55;;;;;;;10.18;6.45;;;;;;;;;;5065470;28;20481;-80
2021/08/29 12:38:23;;;;;;;11.23;6.95;;;;;;;;;;5060583;28;20033;-79
2021/08/29 12:40:49;;;;;;;8.65;6.55;;;;;;;;;;5058745;28;20060;-83
2021/08/29 12:43:15;;;;;;;8.77;7.38;;;;;;;;;;5076791;28;20024;-81
2021/08/29 12:45:41;;;;;;;10.25;7.05;;;;;;;;;;5076838;28;20040;-80
2021/08/29 12:48:08;;;;;;;11.32;7.82;;;;;;;;;;5078225;28;20491;-81
2021/08/29 12:50:37;;;;;;;11.70;7.70;;;;;;;;;;5076435;28;20381;-81
2021/08/29 12:53:08;;;;;;;11.18;8.27;;;;;;;;;;5076183;28;20094;-81
2021/08/29 12:55:35;;;;;;;13.65;8.93;;;;;;;;;;5076994;28;20100;-81
2021/08/29 12:58:02;;;;;;;12.70;8.98;;;;;;;;;;5058837;28;20035;-80
2021/08/29 13:00:51;;;;;;;12.20;8.20;;;;;;;;;;5076682;28;20481;-81
2021/08/29 13:03:18;;;;;;;10.35;7.32;;;;;;;;;;5069336;28;20044;-80
2021/08/29 13:05:45;;;;;;;12.57;7.50;;;;;;;;;;5076754;28;20024;-80
2021/08/29 13:08:13;;;;;;;9.43;7.65;;;;;;;;;;5077457;28;20055;-80
2021/08/29 13:10:40;;;;;;;10.13;7.47;;;;;;;;;;5077213;28;20466;-81
2021/08/29 13:13:13;;;;;;;14.80;7.88;;;;;;;;;;5078005;28;20041;-81
2021/08/29 13:15:40;;;;;;;11.00;7.95;;;;;;;;;;5076455;28;20024;-79
2021/08/29 13:18:07;;;;;;;9.32;7.07;;;;;;;;;;5075482;28;20095;-79
2021/08/29 13:20:34;;;;;;;7.60;6.78;;;;;;;;;;5079872;28;20039;-79
2021/08/29 13:23:01;;;;;;;9.82;7.72;;;;;;;;;;5087487;28;20032;-80
2021/08/29 13:25:31;;;;;;;8.95;7.25;;;;;;;;;;5071187;28;20102;-78
2021/08/29 13:27:58;;;;;;;10.60;7.45;;;;;;;;;;5087260;28;20024;-80
2021/08/29 13:30:28;;;;;;;8.60;7.18;;;;;;;;;;5086463;28;20028;-80
2021/08/29 13:32:54;;;;;;;11.48;8.43;;;;;;;;;;5076374;28;20031;-80
2021/08/29 13:35:23;;;;;;;13.52;7.97;;;;;;;;;;5076934;28;20092;-80
2021/08/29 13:37:51;;;;;;;8.32;7.35;;;;;;;;;;5076539;28;20495;-80
2021/08/29 13:40:19;;;;;;;10.35;7.32;;;;;;;;;;5076296;28;20062;-79
2021/08/29 13:42:52;;;;;;;8.82;7.15;;;;;;;;;;5076899;28;20025;-80
2021/08/29 13:45:22;;;;;;;8.63;6.60;;;;;;;;;;5077064;28;20025;-80
2021/08/29 13:47:48;;;;;;;10.90;7.88;;;;;;;;;;5076949;28;20036;-80
2021/08/29 13:50:14;;;;;;;13.25;9.18;;;;;;;;;;5075220;28;20040;-80
2021/08/29 13:52:42;;;;;;;11.50;9.30;;;;;;;;;;5074897;28;20566;-80
2021/08/29 13:55:09;;;;;;;9.27;7.63;;;;;;;;;;5065523;28;20025;-80
2021/08/29 13:57:35;;;;;;;24.98;16.90;;;;;;;;;;5063069;28;20108;-80
2021/08/29 14:00:01;;;;;;;15.15;10.00;;;;;;;;;;5065358;28;20021;-80
2021/08/29 14:02:27;;;;;;;9.40;7.30;;;;;;;;;;5063211;28;20025;-80
2021/08/29 14:04:53;;;;;;;16.05;10.75;;;;;;;;;;5066753;28;20203;-80
2021/08/29 14:07:19;;;;;;;12.55;9.27;;;;;;;;;;5065320;28;20025;-79
2021/08/29 14:09:45;;;;;;;9.48;7.95;;;;;;;;;;5063198;28;20159;-80
2021/08/29 14:12:11;;;;;;;12.80;7.60;;;;;;;;;;5065032;28;20024;-79
2021/08/29 14:14:37;;;;;;;16.02;10.77;;;;;;;;;;5073381;28;20036;-81
2021/08/29 14:17:03;;;;;;;11.90;8.68;;;;;;;;;;5063879;28;20021;-81
2021/08/29 14:19:29;;;;;;;9.95;7.30;;;;;;;;;;5066037;28;20035;-81
2021/08/29 14:21:55;;;;;;;12.93;8.40;;;;;;;;;;5069325;28;20028;-81
2021/08/29 14:24:21;;;;;;;11.10;7.40;;;;;;;;;;5066894;28;20068;-81
2021/08/29 14:26:47;;;;;;;11.32;8.35;;;;;;;;;;5067931;28;20017;-81
2021/08/29 14:29:13;;;;;;;9.27;8.15;;;;;;;;;;5070056;28;20029;-81
2021/08/29 14:31:39;;;;;;;13.27;7.88;;;;;;;;;;5069212;28;20408;-81
2021/08/29 14:34:05;;;;;;;10.25;8.20;;;;;;;;;;5077435;28;20036;-82
2021/08/29 14:36:31;;;;;;;10.82;8.43;;;;;;;;;;5079774;28;20032;-82